Time;durP1;ratioP1;P1;durP2;ratioP2;P2;SDS_P1;SDS_P2;PMS_P1;PMS_P2;Temp;Humidity;BMP_temperature;BMP_pressure;BME280_temperature;BME280_humidity;BME280_pressure;Samples;Min_cycle;Max_cycle;Signal;HPM_P1;HPM_P2
2020/12/23 00:01:22;;;;;;;29.05;12.73;;;9.20;99.90;;;;;;4992238;28;20108;-65
2020/12/23 00:03:48;;;;;;;26.52;13.52;;;9.10;99.90;;;;;;4990464;28;20062;-65
2020/12/23 00:06:13;;;;;;;28.33;12.93;;;9.10;99.90;;;;;;4988685;28;20034;-64
2020/12/23 00:08:39;;;;;;;25.73;12.07;;;9.10;99.90;;;;;;4989659;28;20053;-66
2020/12/23 00:11:05;;;;;;;30.42;13.93;;;9.10;99.90;;;;;;4989429;28;20147;-65
2020/12/23 00:13:31;;;;;;;26.90;12.85;;;9.00;99.90;;;;;;4988100;28;20075;-66
2020/12/23 00:15:58;;;;;;;29.38;13.75;;;9.10;99.90;;;;;;4989343;28;20022;-65
2020/12/23 00:18:24;;;;;;;27.67;12.68;;;9.10;99.90;;;;;;4971842;28;20700;-65
2020/12/23 00:20:50;;;;;;;26.58;13.38;;;9.10;99.90;;;;;;4999149;28;20030;-64
2020/12/23 00:23:15;;;;;;;26.95;13.57;;;9.20;99.90;;;;;;5009008;28;20648;-63
2020/12/23 00:25:42;;;;;;;28.52;13.27;;;9.20;99.90;;;;;;5009049;28;20029;-64
2020/12/23 00:28:08;;;;;;;28.30;13.00;;;9.30;99.90;;;;;;5007486;28;20026;-64
2020/12/23 00:30:33;;;;;;;25.17;12.35;;;9.40;99.90;;;;;;4990852;28;20079;-64
2020/12/23 00:32:59;;;;;;;26.67;13.68;;;9.40;99.90;;;;;;5008763;28;20033;-64
2020/12/23 00:35:24;;;;;;;25.33;12.27;;;9.40;99.90;;;;;;5007129;28;20045;-64
2020/12/23 00:37:51;;;;;;;24.88;12.20;;;9.40;99.90;;;;;;5008199;28;20034;-65
2020/12/23 00:40:17;;;;;;;25.88;12.32;;;9.40;99.90;;;;;;5008151;28;20032;-63
2020/12/23 00:42:42;;;;;;;25.70;12.55;;;9.50;99.90;;;;;;5008097;28;20373;-64
2020/12/23 00:45:08;;;;;;;25.48;11.90;;;9.40;99.90;;;;;;4990708;28;20030;-64
2020/12/23 00:47:33;;;;;;;25.85;12.52;;;9.40;99.90;;;;;;5008623;28;20111;-64
2020/12/23 00:49:59;;;;;;;26.00;14.25;;;9.40;99.90;;;;;;5008074;28;20038;-66
2020/12/23 00:52:25;;;;;;;28.27;13.20;;;9.40;99.90;;;;;;5008189;28;20033;-63
2020/12/23 00:54:51;;;;;;;29.80;14.45;;;9.40;99.90;;;;;;5007873;28;20034;-65
2020/12/23 00:57:17;;;;;;;30.85;14.60;;;9.50;99.90;;;;;;5007871;28;20037;-66
2020/12/23 00:59:42;;;;;;;28.67;13.60;;;9.50;99.90;;;;;;4993015;28;20064;-64
2020/12/23 01:02:08;;;;;;;28.73;14.43;;;9.50;99.90;;;;;;4988237;28;20059;-63
2020/12/23 01:04:34;;;;;;;28.30;13.95;;;9.60;99.90;;;;;;4988247;28;20018;-64
2020/12/23 01:07:00;;;;;;;27.13;13.20;;;9.60;99.90;;;;;;4987182;28;20084;-64
2020/12/23 01:09:25;;;;;;;26.27;13.40;;;9.60;99.90;;;;;;4988441;28;20042;-65
2020/12/23 01:11:52;;;;;;;27.58;14.10;;;9.60;99.90;;;;;;5028055;23;20042;-59
2020/12/23 01:14:18;;;;;;;28.27;13.35;;;9.50;99.90;;;;;;5011793;28;20042;-59
2020/12/23 01:16:45;;;;;;;28.50;14.30;;;9.50;99.90;;;;;;4994645;28;20512;-58
2020/12/23 01:19:11;;;;;;;28.75;13.88;;;9.50;99.90;;;;;;4994326;28;20033;-59
2020/12/23 01:21:38;;;;;;;28.85;14.45;;;9.40;99.90;;;;;;5012255;28;20018;-57
2020/12/23 01:24:04;;;;;;;30.50;14.80;;;9.40;99.90;;;;;;4994708;28;20053;-57
2020/12/23 01:26:29;;;;;;;28.95;15.15;;;9.40;99.90;;;;;;5012363;28;20064;-60
2020/12/23 01:28:55;;;;;;;30.20;16.58;;;9.40;99.90;;;;;;5011654;28;20092;-60
2020/12/23 01:31:21;;;;;;;33.10;15.70;;;9.40;99.90;;;;;;5012301;28;20030;-58
2020/12/23 01:33:47;;;;;;;29.95;14.80;;;9.50;99.90;;;;;;4994854;28;20396;-59
2020/12/23 01:36:12;;;;;;;28.02;14.32;;;9.50;99.90;;;;;;4994818;28;20029;-60
2020/12/23 01:38:38;;;;;;;29.20;15.35;;;9.50;99.90;;;;;;4993886;28;20072;-60
2020/12/23 01:41:05;;;;;;;28.45;13.75;;;9.50;99.90;;;;;;4978436;28;20028;-61
2020/12/23 01:43:31;;;;;;;29.23;15.23;;;9.50;99.90;;;;;;5012122;28;20022;-58
2020/12/23 01:45:57;;;;;;;30.40;15.55;;;9.50;99.90;;;;;;5012577;28;20026;-58
2020/12/23 01:48:29;;;;;;;30.27;15.70;;;9.50;99.90;;;;;;4994322;28;20032;-57
2020/12/23 01:50:58;;;;;;;33.47;15.73;;;9.50;99.90;;;;;;4994853;28;20040;-60
2020/12/23 01:53:27;;;;;;;30.65;16.58;;;9.50;99.90;;;;;;5012146;28;20018;-58
2020/12/23 01:55:55;;;;;;;28.90;14.68;;;9.60;99.90;;;;;;5012246;28;20113;-60
2020/12/23 01:58:20;;;;;;;32.37;16.33;;;9.60;99.90;;;;;;5011517;28;20464;-62
2020/12/23 02:00:46;;;;;;;31.95;15.88;;;9.60;99.90;;;;;;4994333;28;20272;-58
2020/12/23 02:03:12;;;;;;;32.05;16.80;;;9.60;99.90;;;;;;4994509;28;20026;-61
2020/12/23 02:05:40;;;;;;;30.50;16.02;;;9.60;99.90;;;;;;5012296;28;20029;-60
2020/12/23 02:08:06;;;;;;;31.50;16.25;;;9.60;99.90;;;;;;5011998;28;20052;-60
2020/12/23 02:10:32;;;;;;;35.85;15.63;;;9.60;99.90;;;;;;5010947;28;20033;-60
2020/12/23 02:12:59;;;;;;;29.92;15.82;;;9.60;99.90;;;;;;5012021;28;20309;-58
2020/12/23 02:15:24;;;;;;;29.20;15.10;;;9.60;99.90;;;;;;5011786;28;20030;-60
2020/12/23 02:17:50;;;;;;;35.17;15.43;;;9.60;99.90;;;;;;5011558;28;20053;-60
2020/12/23 02:20:16;;;;;;;33.45;16.90;;;9.60;99.90;;;;;;5010979;28;20084;-57
2020/12/23 02:22:43;;;;;;;30.58;15.20;;;9.60;99.90;;;;;;5011692;28;20014;-60
2020/12/23 02:25:09;;;;;;;34.35;16.20;;;9.60;99.90;;;;;;4994220;28;20117;-59
2020/12/23 02:27:36;;;;;;;28.15;15.40;;;9.60;99.90;;;;;;5011625;28;20084;-59
2020/12/23 02:30:04;;;;;;;29.48;15.07;;;9.70;99.90;;;;;;4995775;28;20122;-60
2020/12/23 02:32:30;;;;;;;30.02;15.77;;;9.60;99.90;;;;;;4997982;28;20037;-59
2020/12/23 02:34:55;;;;;;;31.17;16.33;;;9.60;99.90;;;;;;4998272;28;20034;-59
2020/12/23 02:37:21;;;;;;;31.95;16.98;;;9.60;99.90;;;;;;5015472;28;20061;-60
2020/12/23 02:39:53;;;;;;;35.00;18.20;;;9.60;99.90;;;;;;5014743;28;20056;-57
2020/12/23 02:42:21;;;;;;;34.28;16.17;;;9.60;99.90;;;;;;5015195;28;20055;-61
2020/12/23 02:44:49;;;;;;;36.45;16.13;;;9.60;99.90;;;;;;5015346;28;20025;-60
2020/12/23 02:47:17;;;;;;;33.00;16.05;;;9.60;99.90;;;;;;5015688;28;20057;-58
2020/12/23 02:49:43;;;;;;;36.80;18.80;;;9.60;99.90;;;;;;4996752;28;20169;-56
2020/12/23 02:52:11;;;;;;;37.15;18.55;;;9.60;99.90;;;;;;5015020;28;20041;-59
2020/12/23 02:54:37;;;;;;;38.80;17.53;;;9.60;99.90;;;;;;5015330;28;20046;-60
2020/12/23 02:57:05;;;;;;;35.25;18.27;;;9.60;99.90;;;;;;5015217;28;20037;-60
2020/12/23 02:59:30;;;;;;;36.80;18.75;;;9.60;99.90;;;;;;5014393;28;20040;-59
2020/12/23 03:01:57;;;;;;;43.70;20.50;;;9.60;99.90;;;;;;5014989;28;20101;-55
2020/12/23 03:04:23;;;;;;;40.60;21.17;;;9.50;99.90;;;;;;5016058;28;20026;-60
2020/12/23 03:06:49;;;;;;;37.08;18.80;;;9.50;99.90;;;;;;4998243;28;20164;-60
2020/12/23 03:09:15;;;;;;;36.58;19.13;;;9.50;99.90;;;;;;5014539;28;20497;-60
2020/12/23 03:11:41;;;;;;;37.10;19.25;;;9.50;99.90;;;;;;4997062;28;20048;-58
2020/12/23 03:14:08;;;;;;;37.95;18.50;;;9.50;99.90;;;;;;4996861;28;20025;-60
2020/12/23 03:16:34;;;;;;;36.50;18.88;;;9.50;99.90;;;;;;5013731;28;20045;-61
2020/12/23 03:18:59;;;;;;;36.42;18.00;;;9.50;99.90;;;;;;5013656;28;20022;-59
2020/12/23 03:21:25;;;;;;;42.17;19.88;;;9.50;99.90;;;;;;5014571;28;20808;-59
2020/12/23 03:23:51;;;;;;;40.38;21.35;;;9.40;99.90;;;;;;4996871;28;20113;-57
2020/12/23 03:26:16;;;;;;;38.22;19.55;;;9.40;99.90;;;;;;5014352;28;20025;-60
2020/12/23 03:28:43;;;;;;;38.40;20.88;;;9.40;99.90;;;;;;5013748;28;20033;-58
2020/12/23 03:31:09;;;;;;;36.30;18.50;;;9.40;99.90;;;;;;5014325;28;20045;-58
2020/12/23 03:33:35;;;;;;;37.88;19.67;;;9.40;99.90;;;;;;5014521;28;20029;-58
2020/12/23 03:36:02;;;;;;;36.05;18.98;;;9.50;99.90;;;;;;4996447;28;20030;-60
2020/12/23 03:38:27;;;;;;;39.22;19.98;;;9.50;99.90;;;;;;4996092;28;20046;-58
2020/12/23 03:40:54;;;;;;;34.95;18.90;;;9.50;99.90;;;;;;5014427;28;20022;-60
2020/12/23 03:43:20;;;;;;;41.40;19.45;;;9.50;99.90;;;;;;4996667;28;20033;-60
2020/12/23 03:45:47;;;;;;;36.22;18.67;;;9.50;99.90;;;;;;5014352;28;20146;-59
2020/12/23 03:48:12;;;;;;;33.58;17.23;;;9.50;99.90;;;;;;5013833;28;20072;-60
2020/12/23 03:50:38;;;;;;;37.67;20.05;;;9.50;99.90;;;;;;4995892;28;20505;-60
2020/12/23 03:53:04;;;;;;;36.53;17.88;;;9.50;99.90;;;;;;4996406;28;20029;-58
2020/12/23 03:55:29;;;;;;;36.72;18.15;;;9.50;99.90;;;;;;4996278;28;20026;-59
2020/12/23 03:57:55;;;;;;;38.15;18.60;;;9.50;99.90;;;;;;4996366;28;20034;-57
2020/12/23 04:00:20;;;;;;;38.05;20.27;;;9.50;99.90;;;;;;5013098;28;20057;-59
2020/12/23 04:02:46;;;;;;;39.15;19.77;;;9.50;99.90;;;;;;5013597;28;20097;-59
2020/12/23 04:05:12;;;;;;;39.67;19.05;;;9.50;99.90;;;;;;5013687;28;20145;-59
2020/12/23 04:07:39;;;;;;;35.95;19.13;;;9.50;99.90;;;;;;5013485;28;20037;-60
2020/12/23 04:10:09;;;;;;;34.45;17.23;;;9.50;99.90;;;;;;5013000;28;20026;-60
2020/12/23 04:12:38;;;;;;;39.08;19.10;;;9.50;99.90;;;;;;5013498;28;20121;-57
2020/12/23 04:15:05;;;;;;;33.65;16.67;;;9.60;99.90;;;;;;5013890;28;20030;-61
2020/12/23 04:17:32;;;;;;;34.85;18.98;;;9.60;99.90;;;;;;5013526;28;20133;-58
2020/12/23 04:19:57;;;;;;;33.35;18.15;;;9.60;99.90;;;;;;5013597;28;20022;-59
2020/12/23 04:22:23;;;;;;;34.50;18.25;;;9.60;99.90;;;;;;5013620;28;20025;-61
2020/12/23 04:24:49;;;;;;;33.80;18.38;;;9.60;99.90;;;;;;4995862;28;20029;-58
2020/12/23 04:27:15;;;;;;;32.13;17.75;;;9.60;99.90;;;;;;5013202;28;20052;-55
2020/12/23 04:29:41;;;;;;;32.10;17.25;;;9.70;99.90;;;;;;5012511;28;20026;-57
2020/12/23 04:32:06;;;;;;;33.60;17.45;;;9.60;99.90;;;;;;4995648;28;20029;-57
2020/12/23 04:34:32;;;;;;;35.13;18.80;;;9.70;99.90;;;;;;4995613;28;20034;-57
2020/12/23 04:36:58;;;;;;;35.90;17.40;;;9.70;99.90;;;;;;5013070;28;20515;-53
2020/12/23 04:39:24;;;;;;;34.60;17.92;;;9.60;99.90;;;;;;5012349;28;20030;-57
2020/12/23 04:41:49;;;;;;;33.10;18.42;;;9.60;99.90;;;;;;5012818;28;20026;-56
2020/12/23 04:44:16;;;;;;;37.13;18.77;;;9.60;99.90;;;;;;5012880;28;20030;-58
2020/12/23 04:46:43;;;;;;;34.25;17.70;;;9.60;99.90;;;;;;5012872;28;20416;-57
2020/12/23 04:49:09;;;;;;;35.28;18.75;;;9.70;99.90;;;;;;5012146;28;20126;-58
2020/12/23 04:51:38;;;;;;;38.17;17.83;;;9.70;99.90;;;;;;5011959;28;20083;-54
2020/12/23 04:54:06;;;;;;;36.53;17.88;;;9.70;99.90;;;;;;5012829;28;20038;-59
2020/12/23 04:56:34;;;;;;;42.13;19.40;;;9.60;99.90;;;;;;5012422;28;20505;-56
2020/12/23 04:59:01;;;;;;;43.17;19.08;;;9.60;99.90;;;;;;4994304;28;20453;-56
2020/12/23 05:01:27;;;;;;;46.08;20.38;;;9.50;99.90;;;;;;4995420;28;20026;-57
2020/12/23 05:03:53;;;;;;;41.75;19.58;;;9.50;99.90;;;;;;5012579;28;20433;-57
2020/12/23 05:06:21;;;;;;;45.65;21.08;;;9.60;99.90;;;;;;5012769;28;20025;-56
2020/12/23 05:08:47;;;;;;;53.50;22.33;;;9.60;99.90;;;;;;5011977;28;20477;-58
2020/12/23 05:11:14;;;;;;;57.72;22.35;;;9.60;99.90;;;;;;4994665;28;20072;-59
2020/12/23 05:13:40;;;;;;;55.10;24.77;;;9.60;99.90;;;;;;5012234;28;20026;-55
2020/12/23 05:16:09;;;;;;;52.42;23.10;;;9.60;99.90;;;;;;4994473;28;20112;-57
2020/12/23 05:18:36;;;;;;;59.45;24.90;;;9.60;99.90;;;;;;5011984;28;20032;-59
2020/12/23 05:21:14;;;;;;;58.05;21.98;;;9.60;99.90;;;;;;4994521;28;20026;-59
2020/12/23 05:23:50;;;;;;;57.73;25.53;;;9.60;99.90;;;;;;5012209;28;20025;-60
2020/12/23 05:26:16;;;;;;;64.22;24.13;;;9.60;99.90;;;;;;5012072;28;20029;-59
2020/12/23 05:28:44;;;;;;;85.60;27.60;;;9.60;99.90;;;;;;4993865;28;20026;-58
2020/12/23 05:31:16;;;;;;;58.75;25.88;;;9.60;99.90;;;;;;5012161;28;20026;-57
2020/12/23 05:33:44;;;;;;;76.20;29.63;;;9.60;99.90;;;;;;5012176;28;20441;-58
2020/12/23 05:36:15;;;;;;;64.70;25.77;;;9.60;99.90;;;;;;4995143;28;20363;-55
2020/12/23 05:38:41;;;;;;;72.88;27.13;;;9.60;99.90;;;;;;5011364;28;20021;-60
2020/12/23 05:41:14;;;;;;;64.80;25.35;;;9.60;99.90;;;;;;5011965;28;20022;-59
2020/12/23 05:43:42;;;;;;;58.20;24.10;;;9.60;99.90;;;;;;5011876;28;20026;-59
2020/12/23 05:46:10;;;;;;;69.97;27.05;;;9.70;99.90;;;;;;5011795;28;20022;-56
2020/12/23 05:48:39;;;;;;;58.00;25.27;;;9.80;99.90;;;;;;5011102;28;20034;-58
2020/12/23 05:51:06;;;;;;;60.67;24.92;;;9.90;99.90;;;;;;5011797;28;20501;-58
2020/12/23 05:53:35;;;;;;;59.70;26.08;;;10.10;99.90;;;;;;5011803;28;20139;-57
2020/12/23 05:56:01;;;;;;;;;;;10.10;99.90;;;;;;4994418;28;20460;-58
2020/12/23 05:58:28;;;;;;;71.10;23.67;;;10.10;99.90;;;;;;5011139;28;19932;-51
2020/12/23 06:00:58;;;;;;;64.63;24.25;;;10.10;99.90;;;;;;5011669;28;20025;-57
2020/12/23 06:03:42;;;;;;;54.42;23.63;;;10.00;99.90;;;;;;4994574;28;20046;-58
2020/12/23 06:06:08;;;;;;;52.88;24.33;;;9.90;99.90;;;;;;5016462;28;20117;-59
2020/12/23 06:08:37;;;;;;;56.20;24.58;;;9.90;99.90;;;;;;4997751;28;20489;-56
2020/12/23 06:11:27;;;;;;;54.47;23.48;;;9.90;99.90;;;;;;5015685;28;20037;-56
2020/12/23 06:14:13;;;;;;;53.00;23.02;;;9.90;99.90;;;;;;4998251;28;20484;-57
2020/12/23 06:16:55;;;;;;;56.22;22.77;;;9.80;99.90;;;;;;5015653;28;20041;-56
2020/12/23 06:19:36;;;;;;;58.00;23.00;;;9.80;99.90;;;;;;5015130;28;20468;-58
2020/12/23 06:22:02;;;;;;;47.97;21.50;;;9.80;99.90;;;;;;5015423;28;20026;-59
2020/12/23 06:24:28;;;;;;;44.55;21.70;;;9.80;99.90;;;;;;5015601;28;20022;-57
2020/12/23 06:27:01;;;;;;;48.40;22.95;;;9.80;99.90;;;;;;4997789;28;20497;-57
2020/12/23 06:29:29;;;;;;;52.83;24.15;;;9.80;99.90;;;;;;4996695;28;20030;-57
2020/12/23 06:32:05;;;;;;;54.55;25.48;;;9.70;99.90;;;;;;5015150;28;20545;-59
2020/12/23 06:34:39;;;;;;;50.17;23.38;;;9.70;99.90;;;;;;5015141;28;20038;-58
2020/12/23 06:37:16;;;;;;;51.25;24.02;;;9.80;99.90;;;;;;4997573;28;20523;-59
2020/12/23 06:39:42;;;;;;;50.60;23.13;;;9.80;99.90;;;;;;5014707;28;20025;-56
2020/12/23 06:42:08;;;;;;;55.90;24.52;;;9.80;99.90;;;;;;5015260;28;20296;-58
2020/12/23 06:44:55;;;;;;;50.63;24.63;;;9.90;99.90;;;;;;5015175;28;20493;-53
2020/12/23 06:47:26;;;;;;;56.80;27.05;;;9.90;99.90;;;;;;5015724;28;20030;-58
2020/12/23 06:49:58;;;;;;;54.35;24.48;;;9.90;99.90;;;;;;5015207;28;20037;-58
2020/12/23 06:52:24;;;;;;;57.58;26.85;;;10.00;99.90;;;;;;4997678;28;20413;-59
2020/12/23 06:54:52;;;;;;;51.35;24.95;;;10.00;99.90;;;;;;4997715;28;20535;-61
2020/12/23 06:57:45;;;;;;;53.20;27.17;;;10.00;99.90;;;;;;4997155;28;20041;-59
2020/12/23 07:00:24;;;;;;;53.13;25.55;;;10.00;99.90;;;;;;5014417;28;20490;-56
2020/12/23 07:03:00;;;;;;;60.20;26.25;;;10.00;99.90;;;;;;5015265;28;20042;-59
2020/12/23 07:05:41;;;;;;;50.63;24.50;;;10.10;99.90;;;;;;4997004;28;20030;-59
2020/12/23 07:08:12;;;;;;;54.58;25.40;;;10.10;99.90;;;;;;5014494;28;20029;-59
2020/12/23 07:10:46;;;;;;;52.55;24.73;;;10.10;99.90;;;;;;5037376;23;20109;-57
2020/12/23 07:13:17;;;;;;;58.30;26.42;;;10.10;99.90;;;;;;5012832;28;20041;-59
2020/12/23 07:15:53;;;;;;;60.75;28.08;;;10.10;99.90;;;;;;5013887;28;20025;-55
2020/12/23 07:18:26;;;;;;;57.92;27.17;;;10.10;99.90;;;;;;5013817;28;20030;-54
2020/12/23 07:20:59;;;;;;;55.95;25.27;;;10.10;99.90;;;;;;5013160;28;20029;-55
2020/12/23 07:23:27;;;;;;;59.20;26.63;;;10.10;99.90;;;;;;5014503;28;20018;-57
2020/12/23 07:26:00;;;;;;;59.40;27.60;;;10.10;99.90;;;;;;5014223;28;20018;-55
2020/12/23 07:28:28;;;;;;;53.63;26.02;;;10.20;99.90;;;;;;5013649;28;20069;-57
2020/12/23 07:30:54;;;;;;;51.05;26.33;;;10.20;99.90;;;;;;5013886;28;20037;-59
2020/12/23 07:33:24;;;;;;;55.42;27.45;;;10.20;99.90;;;;;;4996309;28;20055;-57
2020/12/23 07:35:52;;;;;;;51.38;25.17;;;10.20;99.90;;;;;;5006634;28;20405;-58
2020/12/23 07:38:19;;;;;;;55.47;25.58;;;10.20;99.90;;;;;;5010278;28;20036;-54
2020/12/23 07:40:45;;;;;;;56.97;26.08;;;10.30;99.90;;;;;;4993867;28;20026;-59
2020/12/23 07:43:15;;;;;;;48.45;25.35;;;10.30;99.90;;;;;;4982785;28;20497;-61
2020/12/23 07:45:42;;;;;;;49.10;24.95;;;10.30;99.90;;;;;;4996222;28;20053;-57
2020/12/23 07:48:11;;;;;;;48.13;24.70;;;10.30;99.90;;;;;;5015756;28;20021;-56
2020/12/23 07:50:39;;;;;;;;;;;10.30;99.90;;;;;;5013457;28;20450;-57
2020/12/23 07:53:25;;;;;;;47.97;23.95;;;10.40;99.90;;;;;;5013848;28;19952;-61
2020/12/23 07:56:02;;;;;;;49.85;24.40;;;10.40;99.90;;;;;;4995733;28;20140;-58
2020/12/23 07:58:29;;;;;;;52.30;25.63;;;10.40;99.90;;;;;;5012774;28;20026;-61
2020/12/23 08:00:54;;;;;;;52.50;27.02;;;10.50;99.90;;;;;;5016475;28;20022;-59
2020/12/23 08:03:27;;;;;;;46.13;25.02;;;10.50;99.90;;;;;;5013277;28;20033;-59
2020/12/23 08:06:04;;;;;;;49.67;24.45;;;10.50;99.90;;;;;;5013078;28;20030;-59
2020/12/23 08:08:30;;;;;;;50.45;23.90;;;10.50;99.90;;;;;;5012895;28;20124;-60
2020/12/23 08:10:56;;;;;;;47.40;22.85;;;10.50;99.90;;;;;;5013281;28;20161;-56
2020/12/23 08:13:26;;;;;;;42.38;22.45;;;10.50;99.90;;;;;;5013432;28;20029;-55
2020/12/23 08:16:08;;;;;;;47.35;22.98;;;10.50;99.90;;;;;;5013364;28;20037;-57
2020/12/23 08:18:35;;;;;;;47.53;23.25;;;10.60;99.90;;;;;;5012408;28;20026;-58
2020/12/23 08:21:11;;;;;;;44.40;21.52;;;10.60;99.90;;;;;;4995864;28;20094;-60
2020/12/23 08:23:37;;;;;;;45.15;21.80;;;10.60;99.90;;;;;;5012199;28;20408;-56
2020/12/23 08:26:04;;;;;;;46.72;23.25;;;10.60;99.90;;;;;;5012806;28;20030;-62
2020/12/23 08:28:32;;;;;;;41.47;21.60;;;10.60;99.90;;;;;;4994158;28;20033;-57
2020/12/23 08:30:59;;;;;;;42.17;21.73;;;10.60;99.90;;;;;;5012836;28;20037;-59
2020/12/23 08:33:27;;;;;;;38.70;20.25;;;10.70;99.90;;;;;;4996590;28;20028;-58
2020/12/23 08:35:59;;;;;;;43.42;22.95;;;10.70;99.90;;;;;;4992518;28;20512;-57
2020/12/23 08:38:25;;;;;;;41.88;22.75;;;10.70;99.90;;;;;;4993936;28;20069;-57
2020/12/23 08:40:53;;;;;;;44.38;23.02;;;10.80;99.90;;;;;;4998872;28;20459;-57
2020/12/23 08:43:21;;;;;;;38.75;21.05;;;10.80;99.90;;;;;;5012452;28;20014;-57
2020/12/23 08:45:47;;;;;;;44.28;23.45;;;10.80;99.90;;;;;;5012209;28;20088;-56
2020/12/23 08:48:26;;;;;;;39.72;21.50;;;10.90;99.90;;;;;;5012430;28;20034;-60
2020/12/23 08:50:56;;;;;;;39.28;22.35;;;10.90;99.90;;;;;;5012423;28;20453;-58
2020/12/23 08:53:33;;;;;;;42.42;23.67;;;10.90;99.90;;;;;;4994636;28;20543;-58
2020/12/23 08:56:00;;;;;;;38.53;19.33;;;11.00;99.90;;;;;;5012317;28;20038;-55
2020/12/23 08:58:26;;;;;;;39.05;19.35;;;11.00;99.90;;;;;;5011309;28;20058;-57
2020/12/23 09:01:02;;;;;;;33.78;17.67;;;11.10;99.90;;;;;;5011725;28;20101;-55
2020/12/23 09:03:28;;;;;;;34.97;18.48;;;11.10;99.90;;;;;;5012262;28;20022;-57
2020/12/23 09:05:57;;;;;;;36.83;18.38;;;11.20;99.90;;;;;;5012281;28;20048;-59
2020/12/23 09:08:25;;;;;;;31.23;17.85;;;11.20;99.90;;;;;;4994276;28;20033;-58
2020/12/23 09:10:55;;;;;;;31.67;16.93;;;11.30;99.90;;;;;;5011636;28;20026;-51
2020/12/23 09:13:28;;;;;;;33.47;16.95;;;11.30;99.90;;;;;;5012412;28;20037;-57
2020/12/23 09:15:54;;;;;;;30.40;16.55;;;11.30;99.90;;;;;;4994273;28;20033;-59
2020/12/23 09:18:20;;;;;;;32.60;17.38;;;11.30;99.90;;;;;;5011434;28;20022;-53
2020/12/23 09:20:45;;;;;;;30.42;16.77;;;11.40;99.90;;;;;;5011802;28;20029;-58
2020/12/23 09:23:19;;;;;;;34.70;18.15;;;11.40;99.90;;;;;;5012075;28;20049;-58
2020/12/23 09:25:45;;;;;;;31.65;16.80;;;11.40;99.90;;;;;;5012143;28;20033;-55
2020/12/23 09:28:12;;;;;;;32.80;15.40;;;11.40;99.90;;;;;;5026894;28;20034;-58
2020/12/23 09:30:39;;;;;;;30.05;13.73;;;11.40;99.90;;;;;;5026941;28;20180;-58
2020/12/23 09:33:07;;;;;;;26.88;14.63;;;11.50;99.90;;;;;;5012056;28;20440;-59
2020/12/23 09:35:33;;;;;;;25.02;12.98;;;11.50;99.90;;;;;;5011818;28;20037;-57
2020/12/23 09:38:06;;;;;;;23.65;14.02;;;11.50;99.90;;;;;;4993645;28;20040;-57
2020/12/23 09:40:32;;;;;;;27.25;14.63;;;11.60;99.90;;;;;;5011498;28;20026;-54
2020/12/23 09:42:58;;;;;;;25.90;13.30;;;11.60;99.90;;;;;;4994627;28;20029;-58
2020/12/23 09:45:24;;;;;;;32.88;15.52;;;11.50;99.90;;;;;;5011911;28;20022;-58
2020/12/23 09:47:49;;;;;;;25.10;14.07;;;11.60;99.90;;;;;;5012025;28;20057;-54
2020/12/23 09:50:15;;;;;;;25.55;11.70;;;11.60;99.90;;;;;;5011242;28;20488;-59
2020/12/23 09:52:40;;;;;;;28.60;13.32;;;11.60;99.90;;;;;;5011526;28;20097;-55
2020/12/23 09:55:07;;;;;;;21.88;12.52;;;11.60;99.90;;;;;;5011576;28;20029;-50
2020/12/23 09:57:34;;;;;;;23.30;12.45;;;11.70;99.90;;;;;;5011428;28;20129;-56
2020/12/23 09:59:59;;;;;;;22.08;11.90;;;11.70;99.90;;;;;;4993245;28;20018;-57
2020/12/23 10:02:25;;;;;;;21.83;11.52;;;11.60;99.90;;;;;;5011148;28;20026;-56
2020/12/23 10:04:50;;;;;;;19.13;10.10;;;11.70;99.90;;;;;;5011161;28;20026;-56
2020/12/23 10:07:19;;;;;;;20.77;10.73;;;11.70;99.90;;;;;;4993907;28;20030;-57
2020/12/23 10:09:46;;;;;;;21.38;11.40;;;11.80;99.90;;;;;;5011028;28;20026;-62
2020/12/23 10:12:12;;;;;;;22.02;10.57;;;11.70;99.90;;;;;;5011212;28;20512;-60
2020/12/23 10:14:37;;;;;;;22.75;11.00;;;11.80;99.90;;;;;;5011689;28;20073;-61
2020/12/23 10:17:03;;;;;;;22.00;10.60;;;11.70;99.90;;;;;;5011522;28;20026;-60
2020/12/23 10:19:29;;;;;;;20.73;10.90;;;11.70;99.90;;;;;;5010461;28;20547;-58
2020/12/23 10:21:54;;;;;;;21.90;10.43;;;11.70;99.90;;;;;;4993519;28;20041;-60
2020/12/23 10:24:20;;;;;;;19.33;9.60;;;11.70;99.90;;;;;;5011784;28;20026;-58
2020/12/23 10:26:53;;;;;;;19.75;8.95;;;11.80;99.90;;;;;;4993526;28;20029;-60
2020/12/23 10:29:20;;;;;;;22.00;9.00;;;11.80;99.90;;;;;;5010651;28;20022;-59
2020/12/23 10:31:46;;;;;;;18.60;8.68;;;11.90;99.90;;;;;;5010860;28;20034;-56
2020/12/23 10:34:12;;;;;;;19.08;9.00;;;11.80;99.90;;;;;;5011493;28;20037;-58
2020/12/23 10:36:38;;;;;;;18.25;8.70;;;11.80;99.90;;;;;;5011005;28;20103;-57
2020/12/23 10:39:04;;;;;;;18.67;8.57;;;11.80;99.90;;;;;;5010301;28;20022;-61
2020/12/23 10:41:30;;;;;;;17.88;8.63;;;11.80;99.90;;;;;;5010649;28;20532;-64
2020/12/23 10:43:56;;;;;;;19.15;9.00;;;11.80;99.90;;;;;;4993436;28;20025;-63
2020/12/23 10:46:22;;;;;;;19.75;9.18;;;11.80;99.90;;;;;;5010921;28;20018;-64
2020/12/23 10:48:47;;;;;;;19.13;9.05;;;11.80;99.90;;;;;;5010055;28;20037;-63
2020/12/23 10:51:13;;;;;;;18.95;9.57;;;11.80;99.90;;;;;;4995464;28;20032;-64
2020/12/23 10:53:38;;;;;;;19.50;9.32;;;11.80;99.90;;;;;;4996815;28;20018;-64
2020/12/23 10:56:08;;;;;;;18.02;8.32;;;11.80;99.90;;;;;;5015194;28;20026;-66
2020/12/23 10:58:33;;;;;;;19.15;8.75;;;11.80;99.90;;;;;;5014015;28;20069;-64
2020/12/23 11:01:02;;;;;;;19.65;8.70;;;11.80;99.90;;;;;;5014212;28;20046;-63
2020/12/23 11:03:28;;;;;;;17.90;8.23;;;11.80;99.90;;;;;;4996615;28;20018;-64
2020/12/23 11:05:53;;;;;;;18.45;8.05;;;11.80;99.90;;;;;;5013827;28;20033;-65
2020/12/23 11:08:19;;;;;;;17.52;7.72;;;11.80;99.90;;;;;;5011856;28;20509;-64
2020/12/23 11:10:45;;;;;;;18.33;7.05;;;11.80;99.90;;;;;;4995246;28;20413;-64
2020/12/23 11:13:10;;;;;;;17.05;7.38;;;11.90;99.90;;;;;;5012780;28;20033;-64
2020/12/23 11:15:36;;;;;;;16.48;6.88;;;11.90;99.90;;;;;;5013277;28;20037;-65
2020/12/23 11:18:02;;;;;;;16.05;6.68;;;11.90;99.90;;;;;;5013766;28;20026;-64
2020/12/23 11:20:28;;;;;;;17.17;6.90;;;11.90;99.90;;;;;;5012444;28;20018;-62
2020/12/23 11:22:54;;;;;;;16.55;7.00;;;11.90;99.90;;;;;;5012762;28;20037;-66
2020/12/23 11:25:19;;;;;;;15.85;6.60;;;11.90;99.90;;;;;;5013825;28;20022;-65
2020/12/23 11:27:45;;;;;;;15.95;6.43;;;11.90;99.90;;;;;;5013543;28;20037;-64
2020/12/23 11:30:11;;;;;;;15.43;6.45;;;11.90;99.90;;;;;;5013352;28;20433;-64
2020/12/23 11:32:36;;;;;;;15.65;7.05;;;12.00;99.90;;;;;;4996253;28;20038;-63
2020/12/23 11:35:02;;;;;;;17.80;6.78;;;12.00;99.90;;;;;;5013770;28;20526;-65
2020/12/23 11:37:31;;;;;;;16.13;6.90;;;12.00;99.90;;;;;;5013534;28;20030;-64
2020/12/23 11:39:58;;;;;;;15.82;6.05;;;12.00;99.90;;;;;;5013161;28;20050;-61
2020/12/23 11:42:23;;;;;;;17.13;6.65;;;12.10;99.90;;;;;;5013186;28;20489;-64
2020/12/23 11:44:50;;;;;;;17.23;6.43;;;12.00;99.90;;;;;;5011385;28;20026;-64
2020/12/23 11:47:16;;;;;;;17.52;7.63;;;12.10;99.90;;;;;;5013588;28;20448;-65
2020/12/23 11:49:43;;;;;;;15.70;6.28;;;12.10;99.90;;;;;;5012921;28;20173;-63
2020/12/23 11:52:08;;;;;;;16.05;6.55;;;12.10;99.90;;;;;;5013056;28;20030;-64
2020/12/23 11:54:34;;;;;;;17.48;7.13;;;12.10;99.90;;;;;;5013282;28;20073;-64
2020/12/23 11:57:00;;;;;;;16.10;7.00;;;12.00;99.90;;;;;;4996268;28;20057;-64
2020/12/23 11:59:26;;;;;;;17.45;6.93;;;12.00;99.90;;;;;;4995266;28;20160;-63
2020/12/23 12:01:55;;;;;;;18.23;8.13;;;12.00;99.90;;;;;;5013486;28;20033;-63
2020/12/23 12:04:20;;;;;;;;;;;12.00;99.90;;;;;;5013878;28;20034;-64
2020/12/23 12:06:47;;;;;;;20.35;8.57;;;11.90;99.90;;;;;;5014036;28;19905;-64
2020/12/23 12:09:13;;;;;;;17.52;8.45;;;12.00;99.90;;;;;;5012224;28;20029;-64
2020/12/23 12:11:39;;;;;;;18.23;8.63;;;12.00;99.90;;;;;;5012387;28;20034;-62
2020/12/23 12:14:05;;;;;;;19.20;8.57;;;12.00;99.90;;;;;;5012848;28;20374;-63
2020/12/23 12:16:31;;;;;;;18.83;8.60;;;12.00;99.90;;;;;;4995053;28;20052;-62
2020/12/23 12:18:56;;;;;;;19.08;8.50;;;12.10;99.90;;;;;;4994916;28;20025;-65
2020/12/23 12:21:28;;;;;;;18.70;8.07;;;12.10;99.90;;;;;;5013019;28;20048;-64
2020/12/23 12:23:54;;;;;;;18.73;8.57;;;12.10;99.90;;;;;;4995253;28;20022;-63
2020/12/23 12:26:28;;;;;;;18.35;8.27;;;12.10;99.90;;;;;;5012918;28;20033;-64
2020/12/23 12:28:53;;;;;;;18.67;8.55;;;12.10;99.90;;;;;;5012367;28;20471;-64
2020/12/23 12:31:19;;;;;;;17.23;8.05;;;12.10;99.90;;;;;;5012883;28;20056;-64
2020/12/23 12:33:47;;;;;;;17.20;8.25;;;12.10;99.90;;;;;;5012914;28;20430;-64
2020/12/23 12:36:13;;;;;;;18.63;8.00;;;12.00;99.90;;;;;;5015905;28;20032;-64
2020/12/23 12:38:38;;;;;;;17.35;9.23;;;12.10;99.90;;;;;;5031419;28;20037;-64